createdAt,value
2023-05-17T00:00:03.034Z,6.30
2023-05-17T00:00:34.677Z,6.30
2023-05-17T00:01:05.897Z,6.30
2023-05-17T00:01:35.699Z,6.30
2023-05-17T00:01:54.748Z,6.30
2023-05-17T00:02:25.993Z,6.30
2023-05-17T00:02:43.063Z,6.30
2023-05-17T00:03:14.737Z,6.30
2023-05-17T00:03:35.678Z,6.47
2023-05-17T00:04:01.900Z,6.47
2023-05-17T00:04:34.604Z,6.35
2023-05-17T00:05:06.033Z,6.35
2023-05-17T00:05:35.768Z,6.35
2023-05-17T00:05:55.439Z,6.35
2023-05-17T00:06:25.850Z,6.35
2023-05-17T00:06:42.926Z,6.35
2023-05-17T00:07:13.743Z,6.35
2023-05-17T00:07:36.693Z,6.35
2023-05-17T00:08:02.565Z,6.35
2023-05-17T00:08:33.731Z,6.35
2023-05-17T00:09:05.850Z,6.24
2023-05-17T00:09:36.503Z,6.24
2023-05-17T00:09:54.729Z,6.24
2023-05-17T00:10:26.740Z,6.24
2023-05-17T00:10:43.816Z,6.24
2023-05-17T00:11:13.737Z,6.24
2023-05-17T00:11:36.701Z,6.24
2023-05-17T00:12:02.500Z,6.24
2023-05-17T00:12:33.782Z,6.24
2023-05-17T00:13:05.802Z,6.24
2023-05-17T00:13:36.871Z,6.19
2023-05-17T00:13:53.800Z,6.19
2023-05-17T00:14:26.509Z,6.19
2023-05-17T00:14:43.728Z,6.19
2023-05-17T00:15:14.090Z,6.19
2023-05-17T00:15:35.783Z,6.19
2023-05-17T00:16:03.471Z,6.19
2023-05-17T00:16:33.688Z,6.19
2023-05-17T00:17:05.771Z,6.08
2023-05-17T00:17:36.853Z,6.08
2023-05-17T00:17:54.161Z,6.25
2023-05-17T00:18:26.651Z,6.25
2023-05-17T00:18:43.728Z,6.25
2023-05-17T00:19:13.934Z,6.25
2023-05-17T00:19:36.803Z,6.25
2023-05-17T00:20:02.813Z,6.25
2023-05-17T00:20:33.789Z,6.14
2023-05-17T00:21:05.775Z,6.14
2023-05-17T00:21:38.778Z,6.14
2023-05-17T00:22:10.072Z,6.14
2023-05-17T00:22:35.697Z,6.14
2023-05-17T00:22:58.615Z,6.14
2023-05-17T00:23:30.499Z,6.14
2023-05-17T00:24:01.955Z,6.14
2023-05-17T00:24:33.936Z,6.02
2023-05-17T00:25:05.955Z,6.02
2023-05-17T00:25:36.870Z,6.02
2023-05-17T00:25:55.003Z,6.02
2023-05-17T00:26:25.805Z,6.02
2023-05-17T00:26:42.849Z,6.02
2023-05-17T00:27:14.593Z,6.02
2023-05-17T00:27:36.127Z,6.02
2023-05-17T00:28:01.978Z,6.02
2023-05-17T00:28:34.837Z,6.02
2023-05-17T00:29:05.777Z,6.02
2023-05-17T00:29:36.469Z,6.02
2023-05-17T00:29:53.803Z,6.02
2023-05-17T00:30:26.024Z,6.02
2023-05-17T00:30:42.866Z,6.02
2023-05-17T00:31:14.610Z,6.02
2023-05-17T00:31:35.707Z,6.02
2023-05-17T00:32:02.020Z,6.02
2023-05-17T00:32:34.894Z,6.19
2023-05-17T00:33:05.902Z,6.08
2023-05-17T00:33:35.823Z,6.08
2023-05-17T00:33:55.264Z,6.08
2023-05-17T00:34:25.781Z,6.08
2023-05-17T00:34:42.906Z,6.08
2023-05-17T00:35:15.733Z,6.08
2023-05-17T00:35:36.142Z,6.08
2023-05-17T00:36:01.958Z,6.08
2023-05-17T00:36:34.497Z,6.08
2023-05-17T00:37:05.767Z,6.08
2023-05-17T00:37:35.693Z,6.08
2023-05-17T00:37:54.812Z,6.08
2023-05-17T00:38:25.745Z,6.08
2023-05-17T00:38:43.325Z,6.08
2023-05-17T00:39:14.728Z,6.08
2023-05-17T00:39:35.738Z,6.08
2023-05-17T00:40:02.153Z,6.08
2023-05-17T00:40:33.790Z,6.08
2023-05-17T00:41:05.807Z,6.08
2023-05-17T00:41:35.777Z,6.08
2023-05-17T00:41:53.803Z,6.03
2023-05-17T00:42:26.449Z,6.03
2023-05-17T00:42:43.660Z,6.03
2023-05-17T00:43:13.846Z,6.03
2023-05-17T00:43:35.822Z,6.03
2023-05-17T00:44:02.250Z,6.03
2023-05-17T00:44:33.740Z,6.03
2023-05-17T00:45:06.059Z,6.03
2023-05-17T00:45:35.656Z,6.03
2023-05-17T00:45:54.059Z,6.03
2023-05-17T00:46:26.443Z,6.03
2023-05-17T00:46:43.707Z,6.03
2023-05-17T00:47:13.881Z,6.03
2023-05-17T00:47:35.670Z,6.03
2023-05-17T00:48:02.223Z,6.03
2023-05-17T00:48:34.576Z,6.03
2023-05-17T00:49:06.627Z,6.03
2023-05-17T00:49:36.688Z,6.03
2023-05-17T00:49:54.873Z,6.03
2023-05-17T00:50:25.971Z,5.92
2023-05-17T00:50:42.994Z,5.92
2023-05-17T00:51:14.694Z,5.92
2023-05-17T00:51:35.753Z,5.92
2023-05-17T00:52:02.011Z,5.92
2023-05-17T00:52:34.529Z,6.07
2023-05-17T00:53:05.860Z,6.07
2023-05-17T00:53:35.965Z,5.92
2023-05-17T00:53:55.421Z,6.07
2023-05-17T00:54:25.779Z,5.96
2023-05-17T00:54:42.891Z,5.96
2023-05-17T00:55:15.692Z,5.96
2023-05-17T00:55:35.929Z,5.96
2023-05-17T00:56:02.101Z,5.96
2023-05-17T00:56:34.622Z,5.96
2023-05-17T00:57:05.807Z,5.96
2023-05-17T00:57:35.945Z,5.96
2023-05-17T00:57:54.814Z,5.96
2023-05-17T00:58:25.842Z,5.96
2023-05-17T00:58:42.979Z,5.96
2023-05-17T00:59:14.552Z,5.96
2023-05-17T00:59:35.892Z,5.96
2023-05-17T01:00:02.729Z,5.96
2023-05-17T01:00:34.769Z,5.96
2023-05-17T01:01:05.805Z,5.84
2023-05-17T01:01:35.865Z,5.84
2023-05-17T01:02:10.768Z,5.84
2023-05-17T01:02:35.748Z,5.84
2023-05-17T01:02:57.867Z,5.84
2023-05-17T01:03:30.560Z,5.84
2023-05-17T01:04:01.975Z,5.84
2023-05-17T01:04:33.786Z,5.74
2023-05-17T01:05:05.954Z,5.74
2023-05-17T01:05:36.066Z,5.74
2023-05-17T01:06:10.536Z,5.74
2023-05-17T01:06:36.132Z,5.74
2023-05-17T01:06:57.821Z,5.74
2023-05-17T01:07:30.500Z,5.74
2023-05-17T01:08:01.920Z,5.74
2023-05-17T01:08:35.063Z,5.74
2023-05-17T01:09:05.755Z,5.74
2023-05-17T01:09:37.001Z,5.74
2023-05-17T01:09:55.196Z,5.74
2023-05-17T01:10:25.925Z,5.74
2023-05-17T01:10:42.859Z,5.74
2023-05-17T01:11:14.669Z,5.74
2023-05-17T01:11:35.885Z,5.84
2023-05-17T01:12:02.790Z,5.84
2023-05-17T01:12:33.810Z,5.84
2023-05-17T01:13:06.633Z,5.84
2023-05-17T01:13:35.682Z,5.84
2023-05-17T01:13:53.774Z,5.84
2023-05-17T01:14:26.663Z,5.74
2023-05-17T01:14:57.791Z,5.74
2023-05-17T01:15:31.045Z,5.74
2023-05-17T01:16:03.001Z,5.90
2023-05-17T01:16:35.499Z,5.90
2023-05-17T01:17:06.701Z,5.90
2023-05-17T01:17:35.718Z,5.90
2023-05-17T01:17:54.828Z,5.90
2023-05-17T01:18:25.766Z,5.90
2023-05-17T01:18:42.998Z,5.90
2023-05-17T01:19:15.048Z,5.90
2023-05-17T01:19:35.988Z,6.01
2023-05-17T01:20:03.456Z,6.01
2023-05-17T01:20:36.006Z,6.01
2023-05-17T01:21:05.944Z,6.01
2023-05-17T01:21:35.749Z,6.01
2023-05-17T01:21:54.738Z,6.01
2023-05-17T01:22:26.773Z,6.01
2023-05-17T01:22:43.165Z,5.90
2023-05-17T01:23:15.503Z,5.90
2023-05-17T01:23:35.644Z,5.90
2023-05-17T01:24:02.835Z,5.90
2023-05-17T01:24:34.796Z,5.90
2023-05-17T01:25:07.049Z,5.90
2023-05-17T01:25:35.627Z,5.90
2023-05-17T01:25:55.010Z,5.90
2023-05-17T01:26:26.898Z,5.90
2023-05-17T01:26:42.964Z,5.90
2023-05-17T01:27:14.225Z,5.90
2023-05-17T01:27:35.726Z,5.85
2023-05-17T01:28:02.848Z,5.85
2023-05-17T01:28:34.788Z,5.85
2023-05-17T01:29:06.720Z,5.85
2023-05-17T01:29:35.682Z,5.85
2023-05-17T01:29:55.533Z,5.85
2023-05-17T01:30:30.051Z,5.85
2023-05-17T01:30:58.227Z,5.85
2023-05-17T01:31:30.089Z,5.85
2023-05-17T01:32:03.635Z,5.85
2023-05-17T01:32:33.857Z,5.85
2023-05-17T01:33:06.236Z,5.85
2023-05-17T01:33:35.853Z,5.85
2023-05-17T01:33:53.893Z,5.85
2023-05-17T01:34:26.457Z,5.85
2023-05-17T01:34:43.670Z,5.85
2023-05-17T01:35:13.989Z,5.85
2023-05-17T01:35:36.126Z,5.85
2023-05-17T01:36:01.888Z,5.85
2023-05-17T01:36:35.226Z,5.85
2023-05-17T01:37:05.928Z,5.85
2023-05-17T01:37:35.648Z,5.85
2023-05-17T01:37:55.047Z,5.85
2023-05-17T01:38:25.812Z,5.85
2023-05-17T01:38:42.932Z,5.85
2023-05-17T01:39:14.708Z,5.85
2023-05-17T01:39:36.126Z,5.85
2023-05-17T01:40:02.155Z,5.85
2023-05-17T01:40:34.745Z,5.85
2023-05-17T01:41:05.872Z,5.85
2023-05-17T01:41:35.641Z,5.85
2023-05-17T01:41:54.683Z,5.85
2023-05-17T01:42:25.812Z,5.85
2023-05-17T01:42:42.901Z,5.85
2023-05-17T01:43:14.558Z,5.85
2023-05-17T01:43:35.651Z,5.85
2023-05-17T01:44:02.111Z,5.85
2023-05-17T01:44:34.722Z,5.85
2023-05-17T01:45:06.189Z,5.85
2023-05-17T01:45:35.676Z,5.85
2023-05-17T01:45:55.112Z,5.85
2023-05-17T01:46:25.805Z,5.85
2023-05-17T01:46:42.910Z,5.85
2023-05-17T01:47:14.729Z,5.85
2023-05-17T01:47:35.719Z,5.85
2023-05-17T01:48:02.050Z,5.85
2023-05-17T01:48:35.188Z,5.85
2023-05-17T01:49:05.880Z,5.85
2023-05-17T01:49:35.674Z,5.85
2023-05-17T01:49:55.104Z,5.85
2023-05-17T01:50:25.878Z,5.74
2023-05-17T01:50:42.985Z,5.74
2023-05-17T01:51:13.850Z,5.74
2023-05-17T01:51:35.668Z,5.74
2023-05-17T01:52:02.667Z,5.85
2023-05-17T01:52:33.774Z,5.85
2023-05-17T01:53:06.778Z,5.85
2023-05-17T01:53:36.744Z,5.85
2023-05-17T01:53:53.821Z,5.74
2023-05-17T01:54:25.803Z,5.74
2023-05-17T01:54:42.950Z,5.74
2023-05-17T01:55:15.051Z,5.74
2023-05-17T01:55:35.714Z,5.74
2023-05-17T01:56:01.891Z,5.85
2023-05-17T01:56:33.744Z,5.85
2023-05-17T01:57:05.684Z,5.85
2023-05-17T01:57:35.686Z,5.85
2023-05-17T01:57:53.751Z,5.85
2023-05-17T01:58:26.617Z,5.85
2023-05-17T01:58:43.929Z,5.85
2023-05-17T01:59:13.809Z,5.85
2023-05-17T01:59:35.676Z,5.85
2023-05-17T02:00:18.263Z,5.85
2023-05-17T02:00:37.328Z,5.85
2023-05-17T02:01:05.777Z,5.85
2023-05-17T02:01:35.922Z,5.85
2023-05-17T02:01:54.075Z,5.74
2023-05-17T02:02:25.996Z,5.74
2023-05-17T02:02:42.921Z,5.74
2023-05-17T02:03:14.806Z,5.74
2023-05-17T02:03:35.672Z,5.74
2023-05-17T02:04:02.057Z,5.74
2023-05-17T02:04:35.547Z,5.74
2023-05-17T02:05:05.936Z,5.74
2023-05-17T02:05:37.376Z,5.74
2023-05-17T02:06:09.930Z,5.74
2023-05-17T02:06:35.683Z,5.74
2023-05-17T02:06:58.044Z,5.74
2023-05-17T02:07:29.827Z,5.74
2023-05-17T02:08:02.918Z,5.74
2023-05-17T02:08:33.716Z,5.74
2023-05-17T02:09:06.963Z,5.74
2023-05-17T02:09:35.684Z,5.74
2023-05-17T02:09:53.900Z,5.74
2023-05-17T02:10:26.115Z,5.74
2023-05-17T02:10:42.936Z,5.74
2023-05-17T02:11:14.675Z,5.74
2023-05-17T02:11:35.672Z,5.74
2023-05-17T02:12:01.836Z,5.74
2023-05-17T02:12:33.809Z,5.74
2023-05-17T02:13:05.788Z,5.85
2023-05-17T02:13:35.994Z,5.85
2023-05-17T02:13:53.868Z,5.85
2023-05-17T02:14:26.572Z,5.85
2023-05-17T02:14:43.757Z,5.85
2023-05-17T02:15:14.217Z,5.85
2023-05-17T02:15:35.796Z,5.85
2023-05-17T02:16:01.792Z,5.85
2023-05-17T02:16:35.056Z,5.85
2023-05-17T02:17:05.973Z,5.85
2023-05-17T02:17:36.678Z,5.85
2023-05-17T02:17:54.551Z,5.85
2023-05-17T02:18:25.880Z,5.85
2023-05-17T02:18:42.976Z,5.85
2023-05-17T02:19:14.710Z,5.85
2023-05-17T02:19:36.510Z,5.85
2023-05-17T02:20:01.962Z,5.85
2023-05-17T02:20:34.623Z,5.85
2023-05-17T02:21:05.760Z,5.85
2023-05-17T02:21:35.662Z,5.74
2023-05-17T02:21:54.675Z,5.74
2023-05-17T02:22:25.911Z,5.74
2023-05-17T02:22:42.852Z,5.74
2023-05-17T02:23:13.836Z,5.74
2023-05-17T02:23:35.765Z,5.74
2023-05-17T02:24:02.674Z,5.74
2023-05-17T02:24:33.759Z,5.74
2023-05-17T02:25:05.945Z,5.85
2023-05-17T02:25:35.706Z,5.85
2023-05-17T02:25:53.900Z,5.85
2023-05-17T02:26:26.695Z,5.85
2023-05-17T02:26:57.774Z,5.85
2023-05-17T02:27:30.692Z,5.85
2023-05-17T02:28:01.771Z,5.74
2023-05-17T02:28:34.765Z,5.74
2023-05-17T02:29:05.690Z,5.74
2023-05-17T02:29:36.571Z,5.74
2023-05-17T02:29:53.798Z,5.74
2023-05-17T02:30:26.090Z,5.74
2023-05-17T02:30:43.843Z,5.74
2023-05-17T02:31:13.878Z,5.74
2023-05-17T02:31:35.661Z,5.74
2023-05-17T02:32:01.846Z,5.63
2023-05-17T02:32:33.803Z,5.63
2023-05-17T02:33:06.730Z,5.63
2023-05-17T02:33:35.784Z,5.63
2023-05-17T02:33:54.090Z,5.63
2023-05-17T02:34:25.782Z,5.63
2023-05-17T02:34:42.848Z,5.63
2023-05-17T02:35:14.940Z,5.63
2023-05-17T02:35:35.704Z,5.63
2023-05-17T02:36:02.001Z,5.63
2023-05-17T02:36:34.600Z,5.63
2023-05-17T02:37:05.761Z,5.74
2023-05-17T02:37:36.942Z,5.74
2023-05-17T02:37:53.815Z,5.74
2023-05-17T02:38:25.813Z,5.74
2023-05-17T02:38:43.738Z,5.63
2023-05-17T02:39:13.883Z,5.63
2023-05-17T02:39:35.633Z,5.63
2023-05-17T02:40:02.163Z,5.63
2023-05-17T02:40:33.825Z,5.63
2023-05-17T02:41:06.709Z,5.63
2023-05-17T02:41:35.681Z,5.63
2023-05-17T02:41:54.128Z,5.63
2023-05-17T02:42:25.797Z,5.63
2023-05-17T02:42:42.902Z,5.63
2023-05-17T02:43:14.639Z,5.63
2023-05-17T02:43:35.752Z,5.63
2023-05-17T02:44:01.974Z,5.51
2023-05-17T02:44:34.634Z,5.51
2023-05-17T02:45:05.997Z,5.51
2023-05-17T02:45:36.937Z,5.68
2023-05-17T02:46:09.815Z,5.68
2023-05-17T02:46:38.250Z,5.68
2023-05-17T02:46:57.761Z,5.68
2023-05-17T02:47:29.911Z,5.68
2023-05-17T02:48:03.287Z,5.68
2023-05-17T02:48:33.983Z,5.68
2023-05-17T02:49:06.726Z,5.68
2023-05-17T02:49:35.659Z,5.68
2023-05-17T02:49:53.904Z,5.68
2023-05-17T02:50:25.902Z,5.68
2023-05-17T02:50:42.846Z,5.68
2023-05-17T02:51:14.693Z,5.68
2023-05-17T02:51:35.638Z,5.68
2023-05-17T02:52:01.817Z,5.68
2023-05-17T02:52:33.702Z,5.68
2023-05-17T02:53:05.986Z,5.57
2023-05-17T02:53:35.809Z,5.57
2023-05-17T02:53:53.955Z,5.57
2023-05-17T02:54:26.562Z,5.57
2023-05-17T02:54:43.769Z,5.57
2023-05-17T02:55:13.943Z,5.57
2023-05-17T02:55:35.686Z,5.57
2023-05-17T02:56:01.893Z,5.57
2023-05-17T02:56:34.621Z,5.57
2023-05-17T02:57:05.715Z,5.57
2023-05-17T02:57:36.532Z,5.57
2023-05-17T02:57:53.787Z,5.68
2023-05-17T02:58:25.788Z,5.68
2023-05-17T02:58:43.792Z,5.68
2023-05-17T02:59:13.945Z,5.68
2023-05-17T02:59:35.758Z,5.68
2023-05-17T03:00:02.602Z,5.68
2023-05-17T03:00:33.796Z,5.68
2023-05-17T03:01:06.610Z,5.68
2023-05-17T03:01:35.725Z,5.68
2023-05-17T03:01:53.791Z,5.57
2023-05-17T03:02:26.882Z,5.57
2023-05-17T03:02:57.845Z,5.57
2023-05-17T03:03:30.908Z,5.57
2023-05-17T03:04:02.045Z,5.57
2023-05-17T03:04:33.825Z,5.57
2023-05-17T03:05:05.882Z,5.57
2023-05-17T03:05:35.676Z,5.57
2023-05-17T03:05:55.234Z,5.57
2023-05-17T03:06:25.888Z,5.57
2023-05-17T03:06:42.968Z,5.57
2023-05-17T03:07:13.990Z,5.57
2023-05-17T03:07:35.709Z,5.57
2023-05-17T03:08:02.588Z,5.57
2023-05-17T03:08:33.950Z,5.52
2023-05-17T03:09:07.068Z,5.52
2023-05-17T03:09:35.712Z,5.52
2023-05-17T03:09:54.449Z,5.52
2023-05-17T03:10:25.891Z,5.52
2023-05-17T03:10:43.534Z,5.52
2023-05-17T03:11:14.855Z,5.52
2023-05-17T03:11:35.692Z,5.52
2023-05-17T03:12:02.032Z,5.52
2023-05-17T03:12:33.897Z,5.52
2023-05-17T03:13:05.774Z,5.52
2023-05-17T03:13:35.676Z,5.52
2023-05-17T03:13:53.877Z,5.41
2023-05-17T03:14:26.790Z,5.41
2023-05-17T03:14:57.734Z,5.41
2023-05-17T03:15:31.161Z,5.41
2023-05-17T03:16:02.070Z,5.41
2023-05-17T03:16:34.629Z,5.41
2023-05-17T03:17:05.750Z,5.41
2023-05-17T03:17:37.033Z,5.41
2023-05-17T03:18:09.999Z,5.45
2023-05-17T03:18:35.964Z,5.45
2023-05-17T03:18:58.917Z,5.45
2023-05-17T03:19:29.845Z,5.45
2023-05-17T03:20:03.244Z,5.56
2023-05-17T03:20:33.784Z,5.56
2023-05-17T03:21:05.757Z,5.56
2023-05-17T03:21:35.624Z,5.67
2023-05-17T03:21:53.841Z,5.72
2023-05-17T03:22:26.655Z,5.72
2023-05-17T03:22:57.788Z,5.72
2023-05-17T03:23:29.823Z,5.72
2023-05-17T03:24:01.992Z,5.67
2023-05-17T03:24:34.290Z,5.67
2023-05-17T03:25:05.991Z,5.67
2023-05-17T03:25:35.643Z,5.67
2023-05-17T03:25:55.208Z,5.67
2023-05-17T03:26:25.759Z,5.67
2023-05-17T03:26:42.975Z,5.67
2023-05-17T03:27:13.902Z,5.67
2023-05-17T03:27:35.701Z,5.67
2023-05-17T03:28:02.613Z,5.72
2023-05-17T03:28:33.712Z,5.72
2023-05-17T03:29:05.726Z,5.72
2023-05-17T03:29:35.681Z,5.72
2023-05-17T03:29:53.829Z,5.72
2023-05-17T03:30:27.013Z,5.72
2023-05-17T03:30:57.816Z,5.72
2023-05-17T03:31:30.609Z,5.72
2023-05-17T03:32:02.096Z,5.72
2023-05-17T03:32:36.086Z,5.72
2023-05-17T03:33:05.785Z,5.72
2023-05-17T03:33:35.835Z,5.67
2023-05-17T03:33:53.936Z,5.67
2023-05-17T03:34:25.766Z,5.67
2023-05-17T03:34:42.864Z,5.67
2023-05-17T03:35:14.041Z,5.67
2023-05-17T03:35:35.693Z,5.67
2023-05-17T03:36:02.609Z,5.67
2023-05-17T03:36:33.793Z,5.67
2023-05-17T03:37:06.581Z,5.67
2023-05-17T03:37:35.751Z,5.67
2023-05-17T03:37:53.967Z,5.67
2023-05-17T03:38:25.779Z,5.67
2023-05-17T03:38:42.842Z,5.67
2023-05-17T03:39:14.746Z,5.67
2023-05-17T03:39:35.701Z,5.67
2023-05-17T03:40:02.830Z,5.67
2023-05-17T03:40:33.754Z,5.67
2023-05-17T03:41:05.718Z,5.67
2023-05-17T03:41:35.616Z,5.67
2023-05-17T03:41:54.979Z,5.67
2023-05-17T03:42:26.834Z,5.56
2023-05-17T03:42:44.108Z,5.67
2023-05-17T03:43:13.831Z,5.67
2023-05-17T03:43:35.715Z,5.67
2023-05-17T03:44:02.368Z,5.67
2023-05-17T03:44:34.779Z,5.67
2023-05-17T03:45:06.154Z,5.67
2023-05-17T03:45:37.477Z,5.67
2023-05-17T03:45:54.772Z,5.67
2023-05-17T03:46:25.954Z,5.67
2023-05-17T03:46:43.111Z,5.67
2023-05-17T03:47:14.922Z,5.67
2023-05-17T03:47:36.225Z,5.67
2023-05-17T03:48:02.403Z,5.67
2023-05-17T03:48:35.998Z,5.67
2023-05-17T03:49:05.934Z,5.67
2023-05-17T03:49:35.911Z,5.67
2023-05-17T03:49:53.953Z,5.67
2023-05-17T03:50:27.260Z,5.67
2023-05-17T03:50:58.246Z,5.67
2023-05-17T03:51:30.738Z,5.67
2023-05-17T03:52:02.200Z,5.67
2023-05-17T03:52:34.238Z,5.67
2023-05-17T03:53:05.912Z,5.67
2023-05-17T03:53:36.118Z,5.67
2023-05-17T03:53:54.996Z,5.67
2023-05-17T03:54:25.942Z,5.67
2023-05-17T03:54:43.100Z,5.67
2023-05-17T03:55:14.311Z,5.67
2023-05-17T03:55:35.788Z,5.67
2023-05-17T03:56:03.067Z,5.67
2023-05-17T03:56:33.893Z,5.67
2023-05-17T03:57:05.916Z,5.67
2023-05-17T03:57:35.814Z,5.67
2023-05-17T03:57:54.051Z,5.67
2023-05-17T03:58:26.879Z,5.67
2023-05-17T03:58:57.909Z,5.67
2023-05-17T03:59:30.718Z,5.67
2023-05-17T04:00:02.541Z,5.67
2023-05-17T04:00:35.626Z,5.67
2023-05-17T04:01:05.890Z,5.67
2023-05-17T04:01:36.741Z,5.67
2023-05-17T04:01:54.574Z,5.67
2023-05-17T04:02:26.044Z,5.56
2023-05-17T04:02:43.178Z,5.56
2023-05-17T04:03:15.054Z,5.56
2023-05-17T04:03:36.471Z,5.56
2023-05-17T04:04:02.806Z,5.71
2023-05-17T04:04:35.317Z,5.71
2023-05-17T04:05:06.245Z,5.67
2023-05-17T04:05:36.635Z,5.67
2023-05-17T04:05:54.226Z,5.82
2023-05-17T04:06:25.954Z,5.82
2023-05-17T04:06:44.131Z,5.67
2023-05-17T04:07:13.986Z,5.82
2023-05-17T04:07:36.159Z,5.56
2023-05-17T04:08:02.208Z,5.71
2023-05-17T04:08:34.720Z,5.71
2023-05-17T04:09:06.922Z,5.71
2023-05-17T04:09:36.181Z,5.71
2023-05-17T04:09:54.543Z,5.71
2023-05-17T04:10:26.575Z,5.71
2023-05-17T04:10:42.992Z,5.71
2023-05-17T04:11:14.908Z,5.71
2023-05-17T04:11:36.284Z,5.71
2023-05-17T04:12:02.414Z,5.71
2023-05-17T04:12:34.006Z,5.71
2023-05-17T04:13:05.955Z,5.71
2023-05-17T04:13:35.801Z,5.71
2023-05-17T04:13:54.088Z,5.71
2023-05-17T04:14:26.782Z,5.71
2023-05-17T04:14:43.910Z,5.71
2023-05-17T04:15:14.193Z,5.71
2023-05-17T04:15:35.827Z,5.71
2023-05-17T04:16:03.045Z,5.71
2023-05-17T04:16:34.112Z,5.71
2023-05-17T04:17:06.474Z,5.71
2023-05-17T04:17:35.848Z,5.71
2023-05-17T04:17:54.590Z,5.71
2023-05-17T04:18:26.892Z,5.71
2023-05-17T04:18:44.050Z,5.71
2023-05-17T04:19:13.984Z,5.71
2023-05-17T04:19:35.890Z,5.71
2023-05-17T04:20:02.556Z,5.71
2023-05-17T04:20:34.890Z,5.71
2023-05-17T04:21:05.846Z,5.71
2023-05-17T04:21:36.764Z,5.71
2023-05-17T04:21:54.955Z,5.71
2023-05-17T04:22:25.985Z,5.71
2023-05-17T04:22:44.045Z,5.71
2023-05-17T04:23:14.073Z,5.71
2023-05-17T04:23:35.815Z,5.71
2023-05-17T04:24:02.089Z,5.71
2023-05-17T04:24:33.947Z,5.71
2023-05-17T04:25:07.139Z,5.71
2023-05-17T04:25:35.828Z,5.71
2023-05-17T04:25:54.210Z,5.71
2023-05-17T04:26:25.940Z,5.71
2023-05-17T04:26:43.106Z,5.71
2023-05-17T04:27:14.838Z,5.71
2023-05-17T04:27:36.072Z,5.71
2023-05-17T04:28:01.972Z,5.71
2023-05-17T04:28:34.943Z,5.71
2023-05-17T04:29:05.946Z,5.71
2023-05-17T04:29:37.314Z,5.71
2023-05-17T04:29:54.144Z,5.71
2023-05-17T04:30:26.204Z,5.71
2023-05-17T04:30:43.154Z,5.71
2023-05-17T04:31:15.043Z,5.71
2023-05-17T04:31:35.888Z,5.71
2023-05-17T04:32:02.073Z,5.71
2023-05-17T04:32:34.059Z,5.71
2023-05-17T04:33:05.955Z,5.71
2023-05-17T04:33:35.979Z,5.71
2023-05-17T04:33:54.593Z,5.82
2023-05-17T04:34:26.642Z,5.82
2023-05-17T04:34:43.857Z,5.82
2023-05-17T04:35:14.331Z,5.82
2023-05-17T04:35:35.827Z,5.82
2023-05-17T04:36:02.082Z,5.87
2023-05-17T04:36:35.049Z,5.87
2023-05-17T04:37:05.875Z,5.87
2023-05-17T04:37:37.317Z,5.87
2023-05-17T04:38:09.456Z,5.87
2023-05-17T04:38:25.906Z,5.98
2023-05-17T04:38:44.160Z,5.98
2023-05-17T04:39:14.038Z,5.98
2023-05-17T04:39:35.940Z,5.98
2023-05-17T04:40:02.365Z,5.98
2023-05-17T04:40:34.415Z,5.98
2023-05-17T04:41:06.774Z,5.98
2023-05-17T04:41:35.796Z,6.10
2023-05-17T04:41:54.166Z,6.10
2023-05-17T04:42:25.973Z,6.10
2023-05-17T04:42:43.235Z,6.10
2023-05-17T04:43:14.848Z,6.10
2023-05-17T04:43:35.839Z,6.10
2023-05-17T04:44:02.383Z,6.10
2023-05-17T04:44:34.615Z,6.10
2023-05-17T04:45:06.427Z,6.10
2023-05-17T04:45:35.998Z,6.10
2023-05-17T04:45:54.318Z,6.21
2023-05-17T04:46:26.804Z,6.21
2023-05-17T04:46:44.661Z,6.21
2023-05-17T04:47:14.021Z,6.21
2023-05-17T04:47:35.902Z,6.21
2023-05-17T04:48:03.044Z,6.21
2023-05-17T04:48:34.853Z,6.21
2023-05-17T04:49:06.011Z,6.32
2023-05-17T04:49:37.667Z,6.32
2023-05-17T04:50:10.072Z,6.32
2023-05-17T04:50:35.876Z,6.32
2023-05-17T04:50:59.526Z,6.32
2023-05-17T04:51:29.999Z,6.32
2023-05-17T04:52:04.634Z,6.32
2023-05-17T04:52:33.936Z,6.32
2023-05-17T04:53:05.899Z,6.32
2023-05-17T04:53:36.237Z,6.32
2023-05-17T04:53:54.075Z,6.32
2023-05-17T04:54:26.907Z,6.32
2023-05-17T04:54:43.963Z,6.32
2023-05-17T04:55:14.168Z,6.32
2023-05-17T04:55:35.789Z,6.32
2023-05-17T04:56:02.355Z,6.32
2023-05-17T04:56:34.817Z,6.32
2023-05-17T04:57:05.898Z,6.32
2023-05-17T04:57:35.902Z,6.32
2023-05-17T04:57:55.365Z,6.32
2023-05-17T04:58:26.017Z,6.32
2023-05-17T04:58:43.128Z,6.32
2023-05-17T04:59:14.158Z,6.32
2023-05-17T04:59:35.958Z,6.32
2023-05-17T05:00:04.643Z,6.32
2023-05-17T05:00:34.098Z,6.37
2023-05-17T05:01:05.902Z,6.37
2023-05-17T05:01:35.850Z,6.37
2023-05-17T05:01:54.758Z,6.37
2023-05-17T05:02:26.936Z,6.37
2023-05-17T05:02:43.819Z,6.37
2023-05-17T05:03:14.141Z,6.48
2023-05-17T05:03:35.924Z,6.48
2023-05-17T05:04:02.139Z,6.48
2023-05-17T05:04:35.016Z,6.48
2023-05-17T05:05:06.200Z,6.48
2023-05-17T05:05:35.867Z,6.48
2023-05-17T05:05:55.157Z,6.48
2023-05-17T05:06:27.011Z,6.48
2023-05-17T05:06:43.037Z,6.48
2023-05-17T05:07:13.953Z,6.60
2023-05-17T05:07:35.835Z,6.60
2023-05-17T05:08:02.743Z,6.60
2023-05-17T05:08:34.191Z,6.60
2023-05-17T05:09:06.739Z,6.60
2023-05-17T05:09:35.944Z,6.60
2023-05-17T05:09:54.034Z,6.60
2023-05-17T05:10:27.045Z,6.60
2023-05-17T05:10:57.901Z,6.60
2023-05-17T05:11:30.057Z,6.60
2023-05-17T05:12:02.488Z,6.60
2023-05-17T05:12:34.269Z,6.60
2023-05-17T05:13:05.936Z,6.71
2023-05-17T05:13:35.802Z,6.71
2023-05-17T05:13:55.746Z,6.71
2023-05-17T05:14:25.936Z,6.71
2023-05-17T05:14:43.052Z,6.71
2023-05-17T05:15:15.380Z,6.71
2023-05-17T05:15:35.873Z,6.71
2023-05-17T05:16:02.119Z,6.55
2023-05-17T05:16:33.891Z,6.55
2023-05-17T05:17:05.943Z,6.55
2023-05-17T05:17:35.981Z,6.55
2023-05-17T05:17:54.905Z,6.55
2023-05-17T05:18:26.922Z,6.55
2023-05-17T05:18:44.162Z,6.55
2023-05-17T05:19:14.187Z,6.55
2023-05-17T05:19:35.966Z,6.55
2023-05-17T05:20:02.691Z,6.55
2023-05-17T05:20:34.941Z,6.66
2023-05-17T05:21:05.959Z,6.66
2023-05-17T05:21:36.682Z,6.66
2023-05-17T05:21:54.010Z,6.66
2023-05-17T05:22:26.051Z,6.66
2023-05-17T05:22:43.057Z,6.66
2023-05-17T05:23:14.965Z,6.66
2023-05-17T05:23:35.810Z,6.66
2023-05-17T05:24:02.069Z,6.66
2023-05-17T05:24:34.902Z,6.66
2023-05-17T05:25:06.123Z,6.66
2023-05-17T05:25:35.992Z,6.66
2023-05-17T05:25:55.214Z,6.66
2023-05-17T05:26:25.940Z,6.71
2023-05-17T05:26:43.016Z,6.71
2023-05-17T05:27:14.596Z,6.71
2023-05-17T05:27:35.981Z,6.71
2023-05-17T05:28:03.110Z,6.71
2023-05-17T05:28:33.991Z,6.71
2023-05-17T05:29:06.765Z,6.71
2023-05-17T05:29:35.817Z,6.71
2023-05-17T05:29:54.158Z,6.82
2023-05-17T05:30:26.246Z,6.82
2023-05-17T05:30:43.176Z,6.82
2023-05-17T05:31:15.014Z,6.82
2023-05-17T05:31:35.916Z,6.82
2023-05-17T05:32:02.471Z,6.82
2023-05-17T05:32:33.965Z,6.82
2023-05-17T05:33:05.948Z,6.82
2023-05-17T05:33:35.907Z,6.82
2023-05-17T05:33:54.664Z,6.94
2023-05-17T05:34:26.704Z,6.94
2023-05-17T05:34:43.935Z,6.94
2023-05-17T05:35:14.996Z,6.94
2023-05-17T05:35:35.829Z,6.94
2023-05-17T05:36:02.944Z,6.94
2023-05-17T05:36:33.984Z,7.05
2023-05-17T05:37:05.943Z,7.05
2023-05-17T05:37:35.969Z,7.05
2023-05-17T05:37:53.988Z,7.05
2023-05-17T05:38:26.992Z,7.05
2023-05-17T05:38:44.013Z,7.05
2023-05-17T05:39:14.022Z,7.05
2023-05-17T05:39:36.214Z,6.94
2023-05-17T05:40:02.720Z,6.94
2023-05-17T05:40:34.985Z,6.94
2023-05-17T05:41:05.982Z,6.94
2023-05-17T05:41:37.721Z,6.94
2023-05-17T05:42:09.983Z,6.94
2023-05-17T05:42:35.767Z,6.94
2023-05-17T05:42:58.970Z,7.05
2023-05-17T05:43:29.954Z,7.05
2023-05-17T05:44:03.242Z,7.05
2023-05-17T05:44:33.974Z,7.05
2023-05-17T05:45:07.295Z,7.05
2023-05-17T05:45:35.847Z,7.05
2023-05-17T05:45:55.293Z,7.05
2023-05-17T05:46:26.009Z,7.05
2023-05-17T05:46:43.058Z,7.05
2023-05-17T05:47:14.850Z,7.05
2023-05-17T05:47:35.880Z,7.05
2023-05-17T05:48:02.689Z,6.90
2023-05-17T05:48:34.075Z,6.90
2023-05-17T05:49:06.058Z,6.90
2023-05-17T05:49:35.874Z,6.90
2023-05-17T05:49:54.080Z,7.00
2023-05-17T05:50:27.190Z,6.90
2023-05-17T05:50:43.875Z,7.00
2023-05-17T05:51:14.016Z,7.00
2023-05-17T05:51:35.803Z,7.00
2023-05-17T05:52:03.074Z,7.00
2023-05-17T05:52:34.171Z,7.00
2023-05-17T05:53:18.074Z,7.00
2023-05-17T05:53:35.848Z,7.00
2023-05-17T05:53:54.637Z,7.00
2023-05-17T05:54:26.100Z,7.00
2023-05-17T05:54:43.115Z,7.00
2023-05-17T05:55:15.050Z,7.00
2023-05-17T05:55:35.867Z,7.00
2023-05-17T05:56:03.019Z,7.00
2023-05-17T05:56:35.004Z,7.00
2023-05-17T05:57:05.865Z,7.00
2023-05-17T05:57:36.663Z,7.00
2023-05-17T05:57:53.918Z,7.00
2023-05-17T05:58:26.040Z,7.00
2023-05-17T05:58:42.999Z,7.00
2023-05-17T05:59:14.907Z,7.00
2023-05-17T05:59:35.841Z,7.00
2023-05-17T06:00:02.778Z,7.00
2023-05-17T06:00:35.526Z,7.00
2023-05-17T06:01:06.557Z,7.00
2023-05-17T06:01:37.793Z,7.00
2023-05-17T06:02:10.371Z,7.00
2023-05-17T06:02:35.829Z,7.00
2023-05-17T06:02:57.971Z,7.00